Cap Aiguades — FMII — position and weather

sailwx.info

Track history (hours):
 
Tides and Currents Weather Stations Pressure Air Temp Water Temp Dewpoint Dewpoint Depression Visibility Wind Speed Wind Dir Waves Ship Positions

Cap Aiguades

Last reported at 2016-Sep-30 14:29 UTC. Time now 2016-Sep-30 15:12 UTC.
Position N 43°24' E 004°57'.

Length 89 m; draft 3.4 m.

Type: Ship. MMSI: 228237800.

Date/timePositionNaut miles runAvg speedWind from/ knotsBaromVisibWave heightAir tempDewpointWater temp
2016-Sep-30 14:29N 43°24' E 004°57'2 1.7
2016-Sep-30 13:33N 43°24' E 004°59'0 0.0
2016-Sep-30 10:33N 43°24' E 004°59'0 0.0
2016-Sep-30 08:33N 43°24' E 004°59'0 0.0
2016-Sep-30 06:33N 43°24' E 004°59'1 0.2
2016-Sep-30 03:33N 43°24' E 004°59'0 0.0
2016-Sep-30 02:34N 43°24' E 004°59'0 0.0
2016-Sep-29 23:33N 43°24' E 004°59'6 0.8
2016-Sep-29 15:32N 43°25' E 004°51'6 6.4
2016-Sep-29 14:34N 43°24' E 004°59'0 0.0
2016-Sep-29 13:33N 43°24' E 004°59'0 0.0
2016-Sep-29 08:33N 43°24' E 004°59'0 0.0
2016-Sep-29 07:33N 43°24' E 004°59'1 0.1
2016-Sep-29 00:33N 43°24' E 004°59'0 0.0
2016-Sep-28 21:33N 43°24' E 004°59'1 0.0
2016-Sep-28 03:33N 43°24' E 004°59'0 0.0
2016-Sep-28 02:33N 43°24' E 004°59'0 0.0
2016-Sep-28 01:33N 43°24' E 004°59'0 0.0
2016-Sep-27 23:33N 43°24' E 004°59'0 0.0
2016-Sep-27 19:33N 43°24' E 004°59'0 0.0
2016-Sep-27 14:33N 43°24' E 004°59'1 0.6
2016-Sep-27 13:34N 43°24' E 004°59'0 0.0
2016-Sep-27 10:33N 43°24' E 004°59'0 0.0
2016-Sep-27 00:33N 43°24' E 004°59'0 0.0
2016-Sep-26 20:33N 43°24' E 004°59'0 0.0
2016-Sep-26 19:33N 43°24' E 004°59'0 0.0
2016-Sep-26 15:33N 43°24' E 004°59'0 0.0
2016-Sep-26 13:33N 43°24' E 004°59'0 0.0
2016-Sep-26 11:33N 43°24' E 004°59'0 0.0
2016-Sep-26 08:33N 43°24' E 004°59'0 0.0
2016-Sep-26 02:33N 43°24' E 004°59'0 0.0
2016-Sep-26 01:33N 43°24' E 004°59'0 0.0
2016-Sep-26 00:33N 43°24' E 004°59'0 0.0
2016-Sep-25 21:33N 43°24' E 004°59'0 0.0
2016-Sep-25 17:33N 43°24' E 004°59'0 0.0
2016-Sep-25 16:33N 43°24' E 004°59'0 0.0
2016-Sep-25 15:33N 43°24' E 004°59'0 0.1
2016-Sep-25 14:33N 43°24' E 004°59'0 0.0
2016-Sep-25 12:33N 43°24' E 004°59'0 0.0
2016-Sep-25 11:33N 43°24' E 004°59'0 0.0
2016-Sep-25 10:33N 43°24' E 004°59'0 0.0
2016-Sep-25 09:33N 43°24' E 004°59'0 0.0
2016-Sep-25 07:33N 43°24' E 004°59'0 0.0
2016-Sep-25 04:33N 43°24' E 004°59'0 0.0
2016-Sep-25 00:33N 43°24' E 004°59'0 0.0
2016-Sep-24 22:33N 43°24' E 004°59'0 0.0
2016-Sep-24 21:33N 43°24' E 004°59'0 0.0
2016-Sep-24 19:33N 43°24' E 004°59'0 0.0
2016-Sep-24 18:33N 43°24' E 004°59'0 0.0
2016-Sep-24 17:33N 43°24' E 004°59'0 0.0
2016-Sep-24 16:33N 43°24' E 004°59'0 0.0
2016-Sep-24 14:33N 43°24' E 004°59'0 0.0
2016-Sep-24 12:33N 43°24' E 004°59'0 0.0
2016-Sep-24 10:33N 43°24' E 004°59'0 0.0
2016-Sep-24 09:33N 43°24' E 004°59'2 0.1
2016-Sep-23 17:33N 43°24' E 004°57'1 1.4
2016-Sep-23 16:33N 43°24' E 004°59'0 0.0
2016-Sep-23 15:33N 43°24' E 004°59'0 0.0
2016-Sep-23 13:33N 43°24' E 004°59'0 0.0
2016-Sep-23 09:33N 43°24' E 004°59'0 0.0
2016-Sep-23 06:33N 43°24' E 004°59'1 0.3
2016-Sep-23 04:33N 43°24' E 004°59'0 0.0
2016-Sep-23 03:33N 43°24' E 004°59'0 0.0
2016-Sep-23 02:33N 43°24' E 004°59'0 0.0
2016-Sep-23 01:33N 43°24' E 004°59'0 0.0
2016-Sep-23 00:34N 43°24' E 004°59'0 0.0
2016-Sep-22 23:33N 43°24' E 004°59'0 0.0
2016-Sep-22 20:33N 43°24' E 004°59'1 0.1
2016-Sep-22 12:33N 43°24' E 004°59'0 0.0
2016-Sep-22 04:33N 43°24' E 004°59'0 0.0
2016-Sep-22 03:33N 43°24' E 004°59'2 0.3
2016-Sep-21 19:24N 43°23' E 004°56'2 0.2
2016-Sep-21 09:33N 43°24' E 004°59'0 0.0
2016-Sep-21 08:33N 43°24' E 004°59'  
Track history (hours):
 
Tides and Currents Weather Stations Pressure Air Temp Water Temp Dewpoint Dewpoint Depression Visibility Wind Speed Wind Dir Waves Ship Positions

Cap Aiguades

Last reported at 2016-Sep-30 14:29 UTC. Time now 2016-Sep-30 15:12 UTC.
Position N 43°24' E 004°57'.

Length 89 m; draft 3.4 m.

Type: Ship. MMSI: 228237800.

Date/timePositionNaut miles runAvg speedWind from/ knotsBaromVisibWave heightAir tempDewpointWater temp
2016-Sep-30 14:29N 43°24' E 004°57'2 1.7
2016-Sep-30 13:33N 43°24' E 004°59'0 0.0
2016-Sep-30 10:33N 43°24' E 004°59'0 0.0
2016-Sep-30 08:33N 43°24' E 004°59'0 0.0
2016-Sep-30 06:33N 43°24' E 004°59'1 0.2
2016-Sep-30 03:33N 43°24' E 004°59'0 0.0
2016-Sep-30 02:34N 43°24' E 004°59'0 0.0
2016-Sep-29 23:33N 43°24' E 004°59'6 0.8
2016-Sep-29 15:32N 43°25' E 004°51'6 6.4
2016-Sep-29 14:34N 43°24' E 004°59'0 0.0
2016-Sep-29 13:33N 43°24' E 004°59'0 0.0
2016-Sep-29 08:33N 43°24' E 004°59'0 0.0
2016-Sep-29 07:33N 43°24' E 004°59'1 0.1
2016-Sep-29 00:33N 43°24' E 004°59'0 0.0
2016-Sep-28 21:33N 43°24' E 004°59'1 0.0
2016-Sep-28 03:33N 43°24' E 004°59'0 0.0
2016-Sep-28 02:33N 43°24' E 004°59'0 0.0
2016-Sep-28 01:33N 43°24' E 004°59'0 0.0
2016-Sep-27 23:33N 43°24' E 004°59'0 0.0
2016-Sep-27 19:33N 43°24' E 004°59'0 0.0
2016-Sep-27 14:33N 43°24' E 004°59'1 0.6
2016-Sep-27 13:34N 43°24' E 004°59'0 0.0
2016-Sep-27 10:33N 43°24' E 004°59'0 0.0
2016-Sep-27 00:33N 43°24' E 004°59'0 0.0
2016-Sep-26 20:33N 43°24' E 004°59'0 0.0
2016-Sep-26 19:33N 43°24' E 004°59'0 0.0
2016-Sep-26 15:33N 43°24' E 004°59'0 0.0
2016-Sep-26 13:33N 43°24' E 004°59'0 0.0
2016-Sep-26 11:33N 43°24' E 004°59'0 0.0
2016-Sep-26 08:33N 43°24' E 004°59'0 0.0
2016-Sep-26 02:33N 43°24' E 004°59'0 0.0
2016-Sep-26 01:33N 43°24' E 004°59'0 0.0
2016-Sep-26 00:33N 43°24' E 004°59'0 0.0
2016-Sep-25 21:33N 43°24' E 004°59'0 0.0
2016-Sep-25 17:33N 43°24' E 004°59'0 0.0
2016-Sep-25 16:33N 43°24' E 004°59'0 0.0
2016-Sep-25 15:33N 43°24' E 004°59'0 0.1
2016-Sep-25 14:33N 43°24' E 004°59'0 0.0
2016-Sep-25 12:33N 43°24' E 004°59'0 0.0
2016-Sep-25 11:33N 43°24' E 004°59'0 0.0
2016-Sep-25 10:33N 43°24' E 004°59'0 0.0
2016-Sep-25 09:33N 43°24' E 004°59'0 0.0
2016-Sep-25 07:33N 43°24' E 004°59'0 0.0
2016-Sep-25 04:33N 43°24' E 004°59'0 0.0
2016-Sep-25 00:33N 43°24' E 004°59'0 0.0
2016-Sep-24 22:33N 43°24' E 004°59'0 0.0
2016-Sep-24 21:33N 43°24' E 004°59'0 0.0
2016-Sep-24 19:33N 43°24' E 004°59'0 0.0
2016-Sep-24 18:33N 43°24' E 004°59'0 0.0
2016-Sep-24 17:33N 43°24' E 004°59'0 0.0
2016-Sep-24 16:33N 43°24' E 004°59'0 0.0
2016-Sep-24 14:33N 43°24' E 004°59'0 0.0
2016-Sep-24 12:33N 43°24' E 004°59'0 0.0
2016-Sep-24 10:33N 43°24' E 004°59'0 0.0
2016-Sep-24 09:33N 43°24' E 004°59'2 0.1
2016-Sep-23 17:33N 43°24' E 004°57'1 1.4
2016-Sep-23 16:33N 43°24' E 004°59'0 0.0
2016-Sep-23 15:33N 43°24' E 004°59'0 0.0
2016-Sep-23 13:33N 43°24' E 004°59'0 0.0
2016-Sep-23 09:33N 43°24' E 004°59'0 0.0
2016-Sep-23 06:33N 43°24' E 004°59'1 0.3
2016-Sep-23 04:33N 43°24' E 004°59'0 0.0
2016-Sep-23 03:33N 43°24' E 004°59'0 0.0
2016-Sep-23 02:33N 43°24' E 004°59'0 0.0
2016-Sep-23 01:33N 43°24' E 004°59'0 0.0
2016-Sep-23 00:34N 43°24' E 004°59'0 0.0
2016-Sep-22 23:33N 43°24' E 004°59'0 0.0
2016-Sep-22 20:33N 43°24' E 004°59'1 0.1
2016-Sep-22 12:33N 43°24' E 004°59'0 0.0
2016-Sep-22 04:33N 43°24' E 004°59'0 0.0
2016-Sep-22 03:33N 43°24' E 004°59'2 0.3
2016-Sep-21 19:24N 43°23' E 004°56'2 0.2
2016-Sep-21 09:33N 43°24' E 004°59'0 0.0
2016-Sep-21 08:33N 43°24' E 004°59'  

Dump ship's entire track history